createdAt,value
2023-02-25T00:01:11.975Z,7.00
2023-02-25T00:03:39.156Z,7.00
2023-02-25T00:06:08.057Z,7.00
2023-02-25T00:08:35.014Z,7.00
2023-02-25T00:11:06.664Z,6.90
2023-02-25T00:13:34.715Z,7.00
2023-02-25T00:16:05.410Z,6.90
2023-02-25T00:18:32.152Z,7.00
2023-02-25T00:20:59.965Z,7.00
2023-02-25T00:23:26.713Z,6.90
2023-02-25T00:26:05.429Z,6.90
2023-02-25T00:28:33.235Z,6.90
2023-02-25T00:31:00.060Z,6.90
2023-02-25T00:33:26.722Z,6.90
2023-02-25T00:35:53.405Z,6.90
2023-02-25T00:38:20.526Z,6.90
2023-02-25T00:40:47.092Z,6.90
2023-02-25T00:43:13.698Z,6.90
2023-02-25T00:45:40.769Z,6.80
2023-02-25T00:48:08.065Z,6.90
2023-02-25T00:50:35.243Z,6.80
2023-02-25T00:53:01.847Z,6.80
2023-02-25T00:55:33.373Z,6.80
2023-02-25T00:58:01.514Z,6.80
2023-02-25T01:00:29.299Z,6.80
2023-02-25T01:02:57.938Z,6.80
2023-02-25T01:05:25.135Z,6.80
2023-02-25T01:07:52.119Z,6.80
2023-02-25T01:10:18.851Z,6.80
2023-02-25T01:12:45.428Z,6.80
2023-02-25T01:15:12.922Z,6.80
2023-02-25T01:17:39.619Z,6.80
2023-02-25T01:20:11.425Z,6.80
2023-02-25T01:22:41.720Z,6.80
2023-02-25T01:25:13.081Z,6.80
2023-02-25T01:27:40.037Z,6.80
2023-02-25T01:30:07.520Z,6.80
2023-02-25T01:32:34.652Z,6.80
2023-02-25T01:35:01.396Z,6.80
2023-02-25T01:37:28.380Z,6.80
2023-02-25T01:39:55.023Z,6.80
2023-02-25T01:42:21.967Z,6.80
2023-02-25T01:45:13.328Z,6.80
2023-02-25T01:47:40.116Z,6.80
2023-02-25T01:50:07.772Z,6.70
2023-02-25T01:52:34.488Z,6.70
2023-02-25T01:55:01.091Z,6.70
2023-02-25T01:57:27.768Z,6.70
2023-02-25T01:59:56.075Z,6.70
2023-02-25T02:02:24.591Z,6.70
2023-02-25T02:04:53.546Z,6.70
2023-02-25T02:07:22.657Z,6.70
2023-02-25T02:09:58.626Z,6.70
2023-02-25T02:12:36.284Z,6.70
2023-02-25T02:15:06.528Z,6.70
2023-02-25T02:17:36.067Z,6.70
2023-02-25T02:20:14.206Z,6.70
2023-02-25T02:22:40.856Z,6.70
2023-02-25T02:25:29.713Z,6.70
2023-02-25T02:28:14.766Z,6.70
2023-02-25T02:30:44.975Z,6.70
2023-02-25T02:33:30.531Z,6.70
2023-02-25T02:36:01.840Z,6.60
2023-02-25T02:38:42.768Z,6.60
2023-02-25T02:41:33.913Z,6.60
2023-02-25T02:44:27.052Z,6.60
2023-02-25T02:47:01.008Z,6.60
2023-02-25T02:49:38.088Z,6.60
2023-02-25T02:52:15.319Z,6.60
2023-02-25T02:54:49.540Z,6.60
2023-02-25T02:57:18.232Z,6.60
2023-02-25T02:59:59.480Z,6.60
2023-02-25T03:02:36.876Z,6.60
2023-02-25T03:05:08.238Z,6.60
2023-02-25T03:07:40.302Z,6.60
2023-02-25T03:10:08.110Z,6.60
2023-02-25T03:12:34.735Z,6.60
2023-02-25T03:15:01.308Z,6.60
2023-02-25T03:17:32.189Z,6.60
2023-02-25T03:20:34.888Z,6.60
2023-02-25T03:23:05.277Z,6.60
2023-02-25T03:25:52.372Z,6.60
2023-02-25T03:28:34.440Z,6.50
2023-02-25T03:31:17.507Z,6.60
2023-02-25T03:34:10.066Z,6.50
2023-02-25T03:37:04.840Z,6.50
2023-02-25T03:39:36.416Z,6.50
2023-02-25T03:42:05.788Z,6.50
2023-02-25T03:44:37.401Z,6.50
2023-02-25T03:47:08.762Z,6.50
2023-02-25T03:49:44.146Z,6.50
2023-02-25T03:52:16.173Z,6.50
2023-02-25T03:54:43.032Z,6.50
2023-02-25T03:57:09.853Z,6.50
2023-02-25T03:59:36.555Z,6.50
2023-02-25T04:02:03.640Z,6.50
2023-02-25T04:04:30.372Z,6.50
2023-02-25T04:06:57.056Z,6.50
2023-02-25T04:09:23.688Z,6.50
2023-02-25T04:11:50.359Z,6.50
2023-02-25T04:14:19.281Z,6.50
2023-02-25T04:16:46.125Z,6.50
2023-02-25T04:19:12.690Z,6.50
2023-02-25T04:21:40.036Z,6.50
2023-02-25T04:24:07.292Z,6.50
2023-02-25T04:26:35.175Z,6.50
2023-02-25T04:29:02.349Z,6.50
2023-02-25T04:31:29.319Z,6.50
2023-02-25T04:33:58.176Z,6.50
2023-02-25T04:36:33.519Z,6.50
2023-02-25T04:39:02.746Z,6.40
2023-02-25T04:41:32.309Z,6.50
2023-02-25T04:43:59.417Z,6.50
2023-02-25T04:46:27.052Z,6.50
2023-02-25T04:48:53.805Z,6.50
2023-02-25T04:51:21.229Z,6.50
2023-02-25T04:53:48.131Z,6.40
2023-02-25T04:56:15.233Z,6.40
2023-02-25T04:58:42.019Z,6.40
2023-02-25T05:01:09.513Z,6.40
2023-02-25T05:03:37.023Z,6.40
2023-02-25T05:06:04.959Z,6.40
2023-02-25T05:08:32.264Z,6.40
2023-02-25T05:10:59.084Z,6.40
2023-02-25T05:13:26.652Z,6.40
2023-02-25T05:15:53.522Z,6.40
2023-02-25T05:18:20.259Z,6.40
2023-02-25T05:20:47.941Z,6.40
2023-02-25T05:23:14.779Z,6.40
2023-02-25T05:25:41.447Z,6.40
2023-02-25T05:28:09.279Z,6.40
2023-02-25T05:30:37.782Z,6.40
2023-02-25T05:33:05.529Z,6.40
2023-02-25T05:35:32.901Z,6.40
2023-02-25T05:37:59.861Z,6.40
2023-02-25T05:40:26.648Z,6.40
2023-02-25T05:42:53.253Z,6.40
2023-02-25T05:45:19.951Z,6.40
2023-02-25T05:47:46.826Z,6.40
2023-02-25T05:50:13.458Z,6.40
2023-02-25T05:52:40.145Z,6.40
2023-02-25T05:55:09.352Z,6.40
2023-02-25T05:57:36.059Z,6.40
2023-02-25T06:00:04.358Z,6.40
2023-02-25T06:02:33.457Z,6.30
2023-02-25T06:05:00.077Z,6.30
2023-02-25T06:07:30.829Z,6.40
2023-02-25T06:10:00.869Z,6.40
2023-02-25T06:12:33.088Z,6.40
2023-02-25T06:15:00.352Z,6.40
2023-02-25T06:17:26.988Z,6.30
2023-02-25T06:19:53.639Z,6.30
2023-02-25T06:22:21.269Z,6.30
2023-02-25T06:24:48.317Z,6.30
2023-02-25T06:27:16.078Z,6.30
2023-02-25T06:29:42.782Z,6.30
2023-02-25T06:32:11.288Z,6.30
2023-02-25T06:34:38.850Z,6.30
2023-02-25T06:37:06.305Z,6.30
2023-02-25T06:39:33.584Z,6.30
2023-02-25T06:42:00.192Z,6.30
2023-02-25T06:44:28.369Z,6.30
2023-02-25T06:46:58.202Z,6.30
2023-02-25T06:49:25.055Z,6.30
2023-02-25T06:51:51.627Z,6.30
2023-02-25T06:54:18.766Z,6.30
2023-02-25T06:56:45.598Z,6.30
2023-02-25T06:59:12.188Z,6.30
2023-02-25T07:01:39.207Z,6.30
2023-02-25T07:04:05.890Z,6.30
2023-02-25T07:06:32.548Z,6.30
2023-02-25T07:08:59.102Z,6.30
2023-02-25T07:11:27.200Z,6.30
2023-02-25T07:13:53.810Z,6.30
2023-02-25T07:16:21.069Z,6.30
2023-02-25T07:18:47.972Z,6.30
2023-02-25T07:21:15.870Z,6.30
2023-02-25T07:23:42.996Z,6.30
2023-02-25T07:26:11.749Z,6.30
2023-02-25T07:28:39.100Z,6.30
2023-02-25T07:31:15.592Z,6.40
2023-02-25T07:33:42.370Z,6.40
2023-02-25T07:36:10.934Z,6.40
2023-02-25T07:38:38.912Z,6.40
2023-02-25T07:41:07.537Z,6.50
2023-02-25T07:43:35.564Z,6.50
2023-02-25T07:46:03.184Z,6.50
2023-02-25T07:48:30.197Z,6.50
2023-02-25T07:51:03.785Z,6.50
2023-02-25T07:53:30.403Z,6.60
2023-02-25T07:55:57.011Z,6.60
2023-02-25T07:58:23.572Z,6.60
2023-02-25T08:00:50.201Z,6.60
2023-02-25T08:03:16.880Z,6.60
2023-02-25T08:05:43.502Z,6.50
2023-02-25T08:08:10.252Z,6.60
2023-02-25T08:10:37.472Z,6.60
2023-02-25T08:13:04.084Z,6.60
2023-02-25T08:15:30.770Z,6.70
2023-02-25T08:17:57.434Z,6.70
2023-02-25T08:20:24.382Z,6.70
2023-02-25T08:22:50.932Z,6.80
2023-02-25T08:25:17.663Z,6.80
2023-02-25T08:27:44.330Z,6.90
2023-02-25T08:30:11.816Z,7.00
2023-02-25T08:32:39.601Z,7.00
2023-02-25T08:35:06.655Z,7.10
2023-02-25T08:37:33.585Z,7.10
2023-02-25T08:40:00.220Z,7.10
2023-02-25T08:42:26.807Z,7.20
2023-02-25T08:44:53.531Z,7.20
2023-02-25T08:47:20.138Z,7.20
2023-02-25T08:49:47.569Z,7.20
2023-02-25T08:52:14.910Z,7.30
2023-02-25T08:54:41.565Z,7.40
2023-02-25T08:57:08.201Z,7.50
2023-02-25T08:59:35.993Z,7.50
2023-02-25T09:02:07.651Z,7.50
2023-02-25T09:04:34.692Z,7.50
2023-02-25T09:07:02.373Z,7.50
2023-02-25T09:09:29.245Z,7.60
2023-02-25T09:11:55.964Z,7.70
2023-02-25T09:14:22.709Z,7.80
2023-02-25T09:16:49.459Z,7.90
2023-02-25T09:19:18.058Z,8.00
2023-02-25T09:21:51.020Z,8.10
2023-02-25T09:24:17.779Z,8.20
2023-02-25T09:26:44.547Z,8.30
2023-02-25T09:29:11.147Z,8.30
2023-02-25T09:31:39.719Z,8.40
2023-02-25T09:34:09.885Z,8.40
2023-02-25T09:36:37.093Z,8.50
2023-02-25T09:39:05.993Z,8.50
2023-02-25T09:41:41.646Z,8.50
2023-02-25T09:44:19.624Z,8.60
2023-02-25T09:47:24.905Z,8.50
2023-02-25T09:50:02.099Z,8.50
2023-02-25T09:52:43.247Z,8.60
2023-02-25T09:55:31.121Z,8.70
2023-02-25T09:58:05.038Z,8.90
2023-02-25T10:00:34.779Z,9.00
2023-02-25T10:03:07.792Z,9.10
2023-02-25T10:06:00.433Z,9.20
2023-02-25T10:08:45.432Z,9.20
2023-02-25T10:11:19.008Z,9.30
2023-02-25T10:13:49.112Z,9.20
2023-02-25T10:16:32.669Z,9.30
2023-02-25T10:19:34.546Z,9.50
2023-02-25T10:22:39.394Z,9.60
2023-02-25T10:25:18.897Z,9.60
2023-02-25T10:28:10.578Z,9.80
2023-02-25T10:31:05.704Z,9.80
2023-02-25T10:33:36.966Z,9.70
2023-02-25T10:36:28.033Z,9.80
2023-02-25T10:38:55.007Z,9.80
2023-02-25T10:41:23.775Z,9.80
2023-02-25T10:43:51.246Z,9.80
2023-02-25T10:46:36.658Z,9.80
2023-02-25T10:49:16.274Z,9.90
2023-02-25T10:52:03.551Z,10.00
2023-02-25T10:54:51.747Z,10.20
2023-02-25T10:57:25.929Z,10.30
2023-02-25T11:00:06.054Z,10.40
2023-02-25T11:02:41.085Z,10.40
2023-02-25T11:05:31.805Z,10.50
2023-02-25T11:07:58.478Z,10.60
2023-02-25T11:10:25.228Z,10.50
2023-02-25T11:12:54.473Z,10.60
2023-02-25T11:15:45.360Z,10.50
2023-02-25T11:18:27.611Z,10.50
2023-02-25T11:21:00.687Z,10.60
2023-02-25T11:23:35.591Z,10.70
2023-02-25T11:26:03.186Z,10.80
2023-02-25T11:28:40.251Z,10.90
2023-02-25T11:31:17.001Z,11.00
2023-02-25T11:33:50.708Z,11.00
2023-02-25T11:36:23.652Z,11.10
2023-02-25T11:39:05.387Z,11.20
2023-02-25T11:41:32.539Z,11.20
2023-02-25T11:44:19.004Z,11.30
2023-02-25T11:46:56.707Z,11.30
2023-02-25T11:49:29.469Z,11.40
2023-02-25T11:52:02.936Z,11.40
2023-02-25T11:54:38.401Z,11.30
2023-02-25T11:57:14.368Z,11.40
2023-02-25T11:59:57.567Z,11.40
2023-02-25T12:02:38.890Z,11.40
2023-02-25T12:05:43.680Z,11.40
2023-02-25T12:08:22.051Z,11.40
2023-02-25T12:11:06.914Z,11.50
2023-02-25T12:13:59.237Z,11.60
2023-02-25T12:16:56.875Z,11.60
2023-02-25T12:19:54.154Z,11.70
2023-02-25T12:22:39.377Z,11.80
2023-02-25T12:25:18.096Z,11.90
2023-02-25T12:28:03.419Z,11.90
2023-02-25T12:31:02.534Z,12.00
2023-02-25T12:33:41.928Z,12.00
2023-02-25T12:36:37.142Z,11.90
2023-02-25T12:39:15.880Z,12.00
2023-02-25T12:42:10.331Z,12.10
2023-02-25T12:44:40.091Z,12.10
2023-02-25T12:47:10.591Z,12.10
2023-02-25T12:49:40.048Z,12.20
2023-02-25T12:52:25.228Z,12.10
2023-02-25T12:55:19.239Z,12.10
2023-02-25T12:58:04.559Z,12.10
2023-02-25T13:00:46.367Z,12.20
2023-02-25T13:03:45.180Z,12.20
2023-02-25T13:06:42.336Z,12.30
2023-02-25T13:09:50.322Z,12.30
2023-02-25T13:12:48.322Z,12.50
2023-02-25T13:15:23.224Z,12.60
2023-02-25T13:18:11.046Z,12.60
2023-02-25T13:20:56.347Z,12.60
2023-02-25T13:23:26.287Z,12.80
2023-02-25T13:26:14.422Z,12.70
2023-02-25T13:28:57.604Z,12.80
2023-02-25T13:31:36.212Z,12.70
2023-02-25T13:34:11.058Z,12.80
2023-02-25T13:36:47.458Z,12.90
2023-02-25T13:39:38.511Z,13.00
2023-02-25T13:42:10.112Z,13.10
2023-02-25T13:45:03.988Z,13.10
2023-02-25T13:47:48.852Z,13.20
2023-02-25T13:50:18.178Z,13.30
2023-02-25T13:52:59.833Z,13.20
2023-02-25T13:55:59.697Z,13.30
2023-02-25T13:58:42.532Z,13.30
2023-02-25T14:01:22.916Z,13.40
2023-02-25T14:04:25.131Z,13.50
2023-02-25T14:07:12.723Z,13.40
2023-02-25T14:10:12.209Z,13.30
2023-02-25T14:13:04.798Z,13.40
2023-02-25T14:15:35.132Z,13.40
2023-02-25T14:18:44.298Z,13.40
2023-02-25T14:22:07.728Z,13.40
2023-02-25T14:24:57.456Z,13.30
2023-02-25T14:27:47.486Z,13.30
2023-02-25T14:30:18.708Z,13.30
2023-02-25T14:32:51.258Z,13.30
2023-02-25T14:35:36.298Z,13.20
2023-02-25T14:38:30.776Z,13.20
2023-02-25T14:41:21.872Z,13.20
2023-02-25T14:43:53.094Z,13.10
2023-02-25T14:46:44.286Z,13.10
2023-02-25T14:49:17.183Z,13.10
2023-02-25T14:52:14.217Z,13.10
2023-02-25T14:55:01.679Z,13.10
2023-02-25T14:57:40.358Z,13.10
2023-02-25T15:00:48.189Z,13.10
2023-02-25T15:03:14.770Z,13.00
2023-02-25T15:06:03.244Z,13.00
2023-02-25T15:09:02.175Z,13.00
2023-02-25T15:11:34.863Z,13.00
2023-02-25T15:14:10.430Z,13.00
2023-02-25T15:16:46.000Z,12.90
2023-02-25T15:19:35.429Z,12.90
2023-02-25T15:22:34.152Z,12.90
2023-02-25T15:25:18.958Z,12.90
2023-02-25T15:27:51.416Z,12.80
2023-02-25T15:30:20.520Z,12.80
2023-02-25T15:32:58.119Z,12.80
2023-02-25T15:35:52.906Z,12.80
2023-02-25T15:38:41.164Z,12.70
2023-02-25T15:41:29.384Z,12.70
2023-02-25T15:44:02.710Z,12.70
2023-02-25T15:46:39.102Z,12.70
2023-02-25T15:49:11.312Z,12.60
2023-02-25T15:51:42.991Z,12.60
2023-02-25T15:54:29.671Z,12.60
2023-02-25T15:57:01.358Z,12.60
2023-02-25T15:59:42.378Z,12.60
2023-02-25T16:02:27.083Z,12.50
2023-02-25T16:04:56.806Z,12.50
2023-02-25T16:07:31.675Z,12.50
2023-02-25T16:10:03.198Z,12.40
2023-02-25T16:12:29.932Z,12.40
2023-02-25T16:14:58.430Z,12.40
2023-02-25T16:17:32.710Z,12.30
2023-02-25T16:20:07.477Z,12.30
2023-02-25T16:22:35.317Z,12.30
2023-02-25T16:25:03.466Z,12.20
2023-02-25T16:27:35.079Z,12.20
2023-02-25T16:30:21.868Z,12.20
2023-02-25T16:33:05.902Z,12.10
2023-02-25T16:35:55.373Z,12.10
2023-02-25T16:38:38.432Z,12.00
2023-02-25T16:41:05.370Z,12.00
2023-02-25T16:43:35.982Z,12.00
2023-02-25T16:46:08.203Z,11.90
2023-02-25T16:48:37.709Z,11.90
2023-02-25T16:51:12.912Z,11.90
2023-02-25T16:53:44.399Z,11.80
2023-02-25T16:56:20.001Z,11.80
2023-02-25T16:59:04.476Z,11.70
2023-02-25T17:01:33.378Z,11.70
2023-02-25T17:04:14.698Z,11.60
2023-02-25T17:06:41.767Z,11.60
2023-02-25T17:09:22.606Z,11.60
2023-02-25T17:11:56.448Z,11.50
2023-02-25T17:14:23.740Z,11.50
2023-02-25T17:16:50.965Z,11.50
2023-02-25T17:19:20.607Z,11.40
2023-02-25T17:21:53.880Z,11.30
2023-02-25T17:24:27.416Z,11.30
2023-02-25T17:26:54.407Z,11.30
2023-02-25T17:29:21.787Z,11.20
2023-02-25T17:31:53.878Z,11.20
2023-02-25T17:34:40.096Z,11.10
2023-02-25T17:37:09.174Z,11.10
2023-02-25T17:39:36.192Z,11.00
2023-02-25T17:42:02.867Z,11.00
2023-02-25T17:44:39.110Z,10.90
2023-02-25T17:47:08.999Z,10.90
2023-02-25T17:49:37.461Z,10.80
2023-02-25T17:52:06.868Z,10.80
2023-02-25T17:54:36.088Z,10.70
2023-02-25T17:57:10.153Z,10.70
2023-02-25T17:59:41.898Z,10.60
2023-02-25T18:02:29.132Z,10.60
2023-02-25T18:05:18.548Z,10.60
2023-02-25T18:08:08.890Z,10.50
2023-02-25T18:10:35.474Z,10.50
2023-02-25T18:13:04.781Z,10.40
2023-02-25T18:15:34.070Z,10.40
2023-02-25T18:18:07.450Z,10.30
2023-02-25T18:20:43.861Z,10.30
2023-02-25T18:23:24.482Z,10.30
2023-02-25T18:26:12.958Z,10.20
2023-02-25T18:28:39.612Z,10.20
2023-02-25T18:31:06.296Z,10.10
2023-02-25T18:33:32.925Z,10.10
2023-02-25T18:36:00.276Z,10.00
2023-02-25T18:38:29.701Z,10.00
2023-02-25T18:40:56.581Z,10.00
2023-02-25T18:43:28.917Z,9.90
2023-02-25T18:45:57.064Z,9.90
2023-02-25T18:48:23.657Z,9.90
2023-02-25T18:50:50.271Z,9.80
2023-02-25T18:53:20.743Z,9.80
2023-02-25T18:55:47.532Z,9.80
2023-02-25T18:58:16.295Z,9.70
2023-02-25T19:00:45.695Z,9.70
2023-02-25T19:03:16.964Z,9.70
2023-02-25T19:05:43.957Z,9.70
2023-02-25T19:08:15.626Z,9.60
2023-02-25T19:10:43.952Z,9.60
2023-02-25T19:13:36.916Z,9.50
2023-02-25T19:16:04.265Z,9.50
2023-02-25T19:18:31.263Z,9.50
2023-02-25T19:20:57.877Z,9.50
2023-02-25T19:23:24.689Z,9.50
2023-02-25T19:25:57.063Z,9.40
2023-02-25T19:28:24.070Z,9.40
2023-02-25T19:30:50.740Z,9.30
2023-02-25T19:33:17.329Z,9.30
2023-02-25T19:35:44.654Z,9.30
2023-02-25T19:38:16.246Z,9.30
2023-02-25T19:40:44.294Z,9.30
2023-02-25T19:43:11.700Z,9.20
2023-02-25T19:45:40.282Z,9.20
2023-02-25T19:48:07.691Z,9.20
2023-02-25T19:50:35.112Z,9.20
2023-02-25T19:53:03.451Z,9.10
2023-02-25T19:55:30.446Z,9.10
2023-02-25T19:57:57.206Z,9.10
2023-02-25T20:00:25.768Z,9.10
2023-02-25T20:02:53.869Z,9.00
2023-02-25T20:05:21.891Z,9.00
2023-02-25T20:07:48.483Z,9.00
2023-02-25T20:10:16.249Z,9.00
2023-02-25T20:12:45.161Z,9.00
2023-02-25T20:15:13.319Z,8.90
2023-02-25T20:17:42.212Z,8.90
2023-02-25T20:20:10.013Z,8.90
2023-02-25T20:22:37.709Z,8.90
2023-02-25T20:25:05.246Z,8.90
2023-02-25T20:27:32.779Z,8.80
2023-02-25T20:29:59.478Z,8.80
2023-02-25T20:32:26.136Z,8.80
2023-02-25T20:34:52.974Z,8.70
2023-02-25T20:37:31.343Z,8.70
2023-02-25T20:39:59.581Z,8.70
2023-02-25T20:42:30.217Z,8.70
2023-02-25T20:44:58.448Z,8.60
2023-02-25T20:47:30.493Z,8.60
2023-02-25T20:49:58.303Z,8.60
2023-02-25T20:52:29.748Z,8.60
2023-02-25T20:54:56.486Z,8.50
2023-02-25T20:57:24.659Z,8.50
2023-02-25T20:59:51.473Z,8.50
2023-02-25T21:02:18.518Z,8.50
2023-02-25T21:04:45.504Z,8.40
2023-02-25T21:07:12.589Z,8.40
2023-02-25T21:09:39.494Z,8.40
2023-02-25T21:12:06.960Z,8.40
2023-02-25T21:14:34.287Z,8.30
2023-02-25T21:17:01.177Z,8.30
2023-02-25T21:19:31.081Z,8.30
2023-02-25T21:21:57.701Z,8.30
2023-02-25T21:24:24.419Z,8.20
2023-02-25T21:26:51.022Z,8.20
2023-02-25T21:29:17.679Z,8.20
2023-02-25T21:31:45.521Z,8.20
2023-02-25T21:34:14.093Z,8.20
2023-02-25T21:36:42.055Z,8.10
2023-02-25T21:39:10.209Z,8.10
2023-02-25T21:41:39.391Z,8.10
2023-02-25T21:44:06.233Z,8.10
2023-02-25T21:46:32.853Z,8.10
2023-02-25T21:48:59.671Z,8.00
2023-02-25T21:51:28.970Z,8.00
2023-02-25T21:53:57.515Z,8.00
2023-02-25T21:56:25.319Z,8.00
2023-02-25T21:59:00.057Z,8.00
2023-02-25T22:01:32.800Z,8.00
2023-02-25T22:03:59.740Z,7.90
2023-02-25T22:06:27.355Z,7.90
2023-02-25T22:08:55.461Z,7.90
2023-02-25T22:11:27.568Z,7.90
2023-02-25T22:13:54.802Z,7.80
2023-02-25T22:16:23.097Z,7.80
2023-02-25T22:18:50.690Z,7.80
2023-02-25T22:21:21.045Z,7.80
2023-02-25T22:23:48.998Z,7.70
2023-02-25T22:26:19.317Z,7.70
2023-02-25T22:28:46.354Z,7.70
2023-02-25T22:31:16.332Z,7.70
2023-02-25T22:33:43.916Z,7.70
2023-02-25T22:36:12.454Z,7.60
2023-02-25T22:38:40.590Z,7.60
2023-02-25T22:41:13.482Z,7.60
2023-02-25T22:43:40.073Z,7.60
2023-02-25T22:46:09.280Z,7.60
2023-02-25T22:48:37.560Z,7.50
2023-02-25T22:51:04.754Z,7.50
2023-02-25T22:53:31.528Z,7.50
2023-02-25T22:56:07.585Z,7.50
2023-02-25T22:58:36.546Z,7.50
2023-02-25T23:01:03.156Z,7.40
2023-02-25T23:03:29.901Z,7.40
2023-02-25T23:05:56.690Z,7.40
2023-02-25T23:08:23.524Z,7.40
2023-02-25T23:10:50.459Z,7.40
2023-02-25T23:13:17.075Z,7.30
2023-02-25T23:15:47.522Z,7.30
2023-02-25T23:18:15.959Z,7.30
2023-02-25T23:20:42.593Z,7.20
2023-02-25T23:23:09.651Z,7.30
2023-02-25T23:25:39.770Z,7.20
2023-02-25T23:28:08.419Z,7.20
2023-02-25T23:30:38.810Z,7.20
2023-02-25T23:33:06.296Z,7.20
2023-02-25T23:35:34.083Z,7.10
2023-02-25T23:38:00.936Z,7.10
2023-02-25T23:40:28.941Z,7.10
2023-02-25T23:42:55.956Z,7.10
2023-02-25T23:45:22.862Z,7.10
2023-02-25T23:47:49.611Z,7.00
2023-02-25T23:50:16.799Z,7.00
2023-02-25T23:52:44.871Z,7.00
2023-02-25T23:55:13.080Z,7.00
2023-02-25T23:57:40.340Z,7.00
